createdAt,value
2019-03-22T00:01:39.508Z,15.80
2019-03-22T00:04:10.954Z,15.80
2019-03-22T00:06:42.516Z,15.70
2019-03-22T00:09:13.911Z,15.70
2019-03-22T00:11:45.293Z,15.70
2019-03-22T00:14:16.669Z,15.70
2019-03-22T00:16:48.129Z,15.70
2019-03-22T00:19:19.511Z,15.70
2019-03-22T00:21:50.890Z,15.70
2019-03-22T00:24:22.267Z,15.70
2019-03-22T00:26:53.633Z,15.60
2019-03-22T00:29:25.026Z,15.60
2019-03-22T00:31:56.429Z,15.60
2019-03-22T00:34:27.886Z,15.60
2019-03-22T00:36:59.223Z,15.60
2019-03-22T00:39:30.632Z,15.50
2019-03-22T00:42:02.079Z,15.50
2019-03-22T00:44:33.498Z,15.50
2019-03-22T00:47:04.900Z,15.50
2019-03-22T00:49:36.336Z,15.50
2019-03-22T00:52:07.736Z,15.50
2019-03-22T00:54:39.147Z,15.30
2019-03-22T00:57:10.499Z,15.50
2019-03-22T00:59:41.893Z,15.40
2019-03-22T01:02:13.305Z,15.40
2019-03-22T01:04:44.769Z,15.40
2019-03-22T01:07:16.134Z,15.40
2019-03-22T01:09:47.542Z,15.40
2019-03-22T01:12:18.907Z,15.30
2019-03-22T01:14:50.277Z,15.30
2019-03-22T01:17:21.685Z,15.30
2019-03-22T01:19:53.123Z,15.30
2019-03-22T01:22:24.468Z,15.30
2019-03-22T01:24:55.857Z,15.30
2019-03-22T01:27:27.211Z,15.20
2019-03-22T01:29:58.723Z,15.20
2019-03-22T01:32:30.133Z,15.20
2019-03-22T01:35:01.527Z,15.20
2019-03-22T01:37:32.887Z,15.20
2019-03-22T01:40:04.475Z,15.20
2019-03-22T01:42:35.974Z,15.20
2019-03-22T01:45:10.028Z,15.20
2019-03-22T01:47:41.448Z,15.20
2019-03-22T01:50:14.450Z,15.10
2019-03-22T01:52:45.944Z,15.10
2019-03-22T01:55:17.268Z,15.10
2019-03-22T01:57:53.468Z,15.10
2019-03-22T02:00:22.361Z,15.10
2019-03-22T02:02:53.766Z,15.10
2019-03-22T02:05:25.152Z,15.10
2019-03-22T02:07:56.502Z,15.00
2019-03-22T02:10:28.046Z,15.00
2019-03-22T02:12:59.398Z,15.00
2019-03-22T02:15:30.778Z,15.00
2019-03-22T02:18:02.153Z,15.00
2019-03-22T02:20:33.553Z,15.00
2019-03-22T02:23:04.915Z,15.00
2019-03-22T02:25:36.337Z,14.90
2019-03-22T02:28:07.681Z,14.90
2019-03-22T02:30:39.052Z,14.90
2019-03-22T02:33:10.503Z,14.90
2019-03-22T02:35:42.039Z,14.90
2019-03-22T02:38:13.423Z,14.90
2019-03-22T02:40:44.893Z,14.90
2019-03-22T02:43:16.283Z,14.80
2019-03-22T02:45:47.683Z,14.80
2019-03-22T02:48:19.031Z,14.80
2019-03-22T02:50:50.464Z,14.80
2019-03-22T02:53:21.913Z,14.80
2019-03-22T02:55:53.489Z,14.80
2019-03-22T02:58:25.046Z,14.80
2019-03-22T03:00:56.467Z,14.80
2019-03-22T03:03:27.872Z,14.70
2019-03-22T03:05:59.244Z,14.70
2019-03-22T03:08:30.608Z,14.70
2019-03-22T03:11:02.011Z,14.70
2019-03-22T03:13:33.398Z,14.70
2019-03-22T03:16:04.792Z,14.70
2019-03-22T03:18:36.139Z,14.70
2019-03-22T03:21:07.724Z,14.60
2019-03-22T03:23:39.098Z,14.60
2019-03-22T03:26:10.567Z,14.60
2019-03-22T03:28:41.929Z,14.60
2019-03-22T03:31:13.320Z,14.60
2019-03-22T03:33:44.686Z,14.60
2019-03-22T03:36:16.196Z,14.60
2019-03-22T03:38:47.520Z,14.50
2019-03-22T03:41:18.919Z,14.50
2019-03-22T03:43:50.307Z,14.50
2019-03-22T03:46:21.757Z,14.50
2019-03-22T03:48:53.102Z,14.50
2019-03-22T03:51:24.548Z,14.50
2019-03-22T03:53:55.907Z,14.40
2019-03-22T03:56:27.276Z,14.40
2019-03-22T03:58:58.635Z,14.40
2019-03-22T04:01:30.075Z,14.40
2019-03-22T04:04:01.392Z,14.40
2019-03-22T04:06:32.848Z,14.40
2019-03-22T04:09:05.616Z,14.40
2019-03-22T04:11:36.998Z,14.40
2019-03-22T04:14:08.345Z,14.30
2019-03-22T04:16:39.775Z,14.30
2019-03-22T04:19:11.161Z,14.30
2019-03-22T04:21:42.586Z,14.30
2019-03-22T04:24:13.930Z,14.30
2019-03-22T04:26:45.300Z,14.30
2019-03-22T04:29:16.723Z,14.20
2019-03-22T04:31:48.208Z,14.20
2019-03-22T04:34:19.667Z,14.20
2019-03-22T04:36:51.053Z,14.20
2019-03-22T04:39:22.514Z,14.20
2019-03-22T04:41:54.027Z,14.20
2019-03-22T04:44:25.377Z,14.20
2019-03-22T04:46:57.485Z,14.20
2019-03-22T04:49:30.337Z,14.20
2019-03-22T04:52:02.009Z,14.20
2019-03-22T04:54:37.869Z,14.20
2019-03-22T04:57:13.082Z,14.10
2019-03-22T04:59:48.238Z,14.10
2019-03-22T05:02:20.765Z,14.10
2019-03-22T05:04:52.917Z,14.10
2019-03-22T05:07:24.622Z,14.10
2019-03-22T05:09:56.862Z,14.10
2019-03-22T05:12:28.958Z,14.00
2019-03-22T05:15:02.168Z,14.00
2019-03-22T05:17:34.475Z,14.00
2019-03-22T05:20:06.798Z,14.00
2019-03-22T05:22:39.294Z,14.00
2019-03-22T05:25:12.517Z,14.00
2019-03-22T05:27:46.790Z,14.00
2019-03-22T05:31:06.876Z,14.00
2019-03-22T05:33:57.086Z,13.90
2019-03-22T05:36:28.562Z,13.90
2019-03-22T05:38:59.957Z,14.00
2019-03-22T05:41:31.305Z,14.00
2019-03-22T05:44:02.969Z,14.00
2019-03-22T05:46:34.418Z,14.00
2019-03-22T05:49:05.813Z,14.10
2019-03-22T05:51:37.283Z,14.10
2019-03-22T05:54:08.740Z,14.10
2019-03-22T05:56:40.103Z,14.10
2019-03-22T05:59:11.488Z,14.20
2019-03-22T06:01:45.233Z,14.20
2019-03-22T06:04:16.146Z,14.20
2019-03-22T06:06:47.611Z,14.20
2019-03-22T06:09:19.135Z,14.30
2019-03-22T06:11:50.592Z,14.30
2019-03-22T06:14:21.955Z,14.30
2019-03-22T06:16:53.367Z,14.30
2019-03-22T06:19:24.796Z,14.40
2019-03-22T06:21:56.174Z,14.40
2019-03-22T06:24:27.711Z,14.40
2019-03-22T06:26:59.263Z,14.50
2019-03-22T06:29:30.813Z,14.50
2019-03-22T06:32:02.180Z,14.60
2019-03-22T06:34:33.635Z,14.60
2019-03-22T06:37:05.080Z,14.70
2019-03-22T06:39:36.458Z,14.70
2019-03-22T06:42:08.077Z,14.80
2019-03-22T06:44:39.451Z,14.80
2019-03-22T06:47:11.256Z,14.90
2019-03-22T06:49:42.797Z,14.90
2019-03-22T06:52:14.435Z,15.00
2019-03-22T06:54:45.852Z,15.10
2019-03-22T06:57:17.255Z,15.10
2019-03-22T06:59:48.651Z,15.20
2019-03-22T07:02:20.035Z,15.20
2019-03-22T07:04:51.446Z,15.30
2019-03-22T07:07:22.830Z,15.40
2019-03-22T07:09:54.328Z,15.40
2019-03-22T07:12:25.681Z,15.50
2019-03-22T07:14:57.211Z,15.50
2019-03-22T07:17:28.722Z,15.60
2019-03-22T07:20:00.417Z,15.70
2019-03-22T07:22:32.049Z,15.70
2019-03-22T07:25:04.966Z,15.80
2019-03-22T07:27:36.315Z,15.90
2019-03-22T07:30:18.146Z,16.00
2019-03-22T07:32:42.351Z,16.10
2019-03-22T07:35:13.775Z,16.20
2019-03-22T07:37:45.308Z,16.30
2019-03-22T07:40:16.915Z,16.30
2019-03-22T07:42:48.649Z,16.40
2019-03-22T07:45:20.101Z,16.50
2019-03-22T07:47:51.620Z,16.60
2019-03-22T07:50:24.591Z,16.70
2019-03-22T07:52:56.021Z,16.80
2019-03-22T07:55:27.546Z,16.80
2019-03-22T07:58:17.786Z,16.90
2019-03-22T08:00:49.200Z,17.00
2019-03-22T08:03:20.596Z,17.10
2019-03-22T08:05:52.057Z,17.30
2019-03-22T08:08:23.429Z,17.50
2019-03-22T08:10:54.879Z,17.70
2019-03-22T08:13:26.408Z,18.00
2019-03-22T08:15:57.863Z,18.20
2019-03-22T08:18:29.454Z,18.40
2019-03-22T08:21:00.838Z,18.50
2019-03-22T08:23:32.206Z,18.70
2019-03-22T08:26:03.586Z,18.90
2019-03-22T08:28:34.939Z,19.00
2019-03-22T08:31:06.365Z,19.10
2019-03-22T08:33:37.734Z,19.20
2019-03-22T08:36:09.171Z,19.30
2019-03-22T08:38:40.611Z,19.40
2019-03-22T08:41:12.049Z,19.50
2019-03-22T08:43:43.558Z,19.70
2019-03-22T08:46:15.129Z,19.90
2019-03-22T08:48:46.514Z,20.00
2019-03-22T08:51:17.935Z,20.00
2019-03-22T08:53:55.157Z,20.00
2019-03-22T08:56:22.594Z,20.00
2019-03-22T08:58:54.013Z,19.90
2019-03-22T09:01:25.495Z,19.90
2019-03-22T09:03:56.977Z,19.80
2019-03-22T09:06:28.465Z,19.70
2019-03-22T09:08:59.862Z,19.70
2019-03-22T09:11:31.293Z,19.60
2019-03-22T09:14:03.270Z,19.50
2019-03-22T09:16:34.648Z,19.50
2019-03-22T09:19:06.046Z,19.40
2019-03-22T09:21:37.557Z,19.40
2019-03-22T09:24:09.060Z,19.30
2019-03-22T09:26:47.640Z,19.30
2019-03-22T09:29:13.570Z,19.30
2019-03-22T09:31:44.932Z,19.20
2019-03-22T09:34:16.480Z,19.20
2019-03-22T09:36:47.885Z,19.20
2019-03-22T09:39:19.740Z,19.10
2019-03-22T09:41:51.221Z,19.10
2019-03-22T09:44:22.615Z,19.10
2019-03-22T09:46:54.180Z,19.10
2019-03-22T09:49:25.663Z,19.10
2019-03-22T09:51:57.295Z,19.10
2019-03-22T09:54:28.762Z,19.10
2019-03-22T09:57:00.324Z,19.10
2019-03-22T09:59:31.797Z,19.10
2019-03-22T10:02:05.092Z,19.10
2019-03-22T10:04:36.477Z,19.00
2019-03-22T10:07:07.932Z,19.00
2019-03-22T10:09:39.335Z,19.00
2019-03-22T10:12:12.150Z,19.10
2019-03-22T10:14:43.610Z,19.10
2019-03-22T10:17:15.206Z,19.10
2019-03-22T10:19:46.736Z,19.10
2019-03-22T10:22:18.167Z,19.10
2019-03-22T10:24:49.618Z,19.10
2019-03-22T10:27:21.037Z,19.00
2019-03-22T10:29:52.440Z,19.10
2019-03-22T10:32:24.202Z,19.10
2019-03-22T10:34:56.218Z,19.10
2019-03-22T10:37:27.781Z,19.10
2019-03-22T10:39:59.227Z,19.10
2019-03-22T10:42:30.674Z,19.10
2019-03-22T10:45:02.139Z,19.10
2019-03-22T10:47:33.570Z,19.20
2019-03-22T10:50:05.230Z,19.20
2019-03-22T10:52:36.790Z,19.30
2019-03-22T10:55:28.438Z,19.30
2019-03-22T10:57:42.121Z,19.30
2019-03-22T11:00:17.367Z,19.30
2019-03-22T11:02:49.132Z,19.30
2019-03-22T11:05:20.658Z,19.40
2019-03-22T11:07:52.196Z,19.40
2019-03-22T11:10:23.602Z,19.40
2019-03-22T11:12:55.121Z,19.40
2019-03-22T11:15:26.480Z,19.40
2019-03-22T11:17:57.899Z,19.40
2019-03-22T11:20:29.372Z,19.40
2019-03-22T11:23:00.777Z,19.50
2019-03-22T11:25:32.178Z,19.50
2019-03-22T11:28:05.763Z,19.50
2019-03-22T11:30:37.177Z,19.50
2019-03-22T11:33:08.676Z,19.60
2019-03-22T11:35:40.147Z,19.60
2019-03-22T11:38:11.624Z,19.60
2019-03-22T11:40:43.085Z,19.60
2019-03-22T11:43:14.558Z,19.60
2019-03-22T11:45:45.899Z,19.60
2019-03-22T11:48:17.297Z,19.70
2019-03-22T11:50:48.883Z,19.70
2019-03-22T11:53:20.446Z,19.70
2019-03-22T11:55:53.249Z,19.70
2019-03-22T11:58:24.797Z,19.70
2019-03-22T12:00:56.253Z,19.70
2019-03-22T12:03:27.744Z,19.70
2019-03-22T12:05:59.384Z,19.80
2019-03-22T12:08:31.569Z,19.80
2019-03-22T12:11:02.967Z,19.90
2019-03-22T12:13:34.775Z,19.90
2019-03-22T12:16:06.330Z,19.90
2019-03-22T12:18:37.715Z,19.90
2019-03-22T12:21:09.123Z,19.90
2019-03-22T12:23:40.595Z,20.00
2019-03-22T12:26:12.121Z,20.00
2019-03-22T12:28:46.863Z,20.00
2019-03-22T12:31:19.496Z,20.00
2019-03-22T12:33:50.997Z,20.10
2019-03-22T12:36:22.394Z,20.10
2019-03-22T12:38:53.748Z,20.10
2019-03-22T12:41:25.336Z,20.10
2019-03-22T12:43:58.036Z,20.20
2019-03-22T12:46:29.445Z,20.20
2019-03-22T12:49:00.925Z,20.20
2019-03-22T12:51:32.326Z,20.30
2019-03-22T12:54:03.754Z,20.30
2019-03-22T12:56:35.353Z,20.30
2019-03-22T12:59:08.021Z,20.30
2019-03-22T13:01:39.412Z,20.30
2019-03-22T13:04:10.819Z,20.30
2019-03-22T13:06:42.241Z,20.30
2019-03-22T13:09:13.644Z,20.40
2019-03-22T13:11:45.067Z,20.40
2019-03-22T13:14:16.464Z,20.40
2019-03-22T13:16:47.858Z,20.40
2019-03-22T13:19:19.362Z,20.40
2019-03-22T13:21:50.759Z,20.50
2019-03-22T13:24:22.196Z,20.50
2019-03-22T13:26:53.602Z,20.50
2019-03-22T13:29:25.000Z,20.50
2019-03-22T13:31:56.391Z,20.60
2019-03-22T13:34:27.768Z,20.60
2019-03-22T13:36:59.158Z,20.60
2019-03-22T13:39:30.569Z,20.60
2019-03-22T13:42:01.986Z,20.60
2019-03-22T13:44:33.379Z,20.70
2019-03-22T13:47:04.847Z,20.70
2019-03-22T13:49:36.282Z,20.70
2019-03-22T13:52:07.678Z,20.80
2019-03-22T13:54:39.023Z,20.80
2019-03-22T13:57:10.530Z,20.80
2019-03-22T13:59:41.908Z,20.80
2019-03-22T14:02:13.424Z,20.80
2019-03-22T14:04:44.853Z,20.80
2019-03-22T14:07:16.249Z,20.80
2019-03-22T14:09:47.651Z,20.80
2019-03-22T14:12:19.075Z,20.80
2019-03-22T14:14:50.516Z,20.90
2019-03-22T14:17:22.346Z,20.90
2019-03-22T14:19:53.764Z,20.90
2019-03-22T14:22:25.155Z,20.90
2019-03-22T14:24:56.521Z,20.90
2019-03-22T14:27:27.915Z,20.90
2019-03-22T14:29:59.263Z,20.90
2019-03-22T14:32:30.831Z,20.90
2019-03-22T14:35:02.302Z,21.00
2019-03-22T14:37:33.956Z,21.00
2019-03-22T14:40:05.834Z,21.00
2019-03-22T14:42:37.448Z,21.00
2019-03-22T14:45:09.087Z,21.00
2019-03-22T14:47:40.543Z,21.00
2019-03-22T14:50:13.009Z,21.00
2019-03-22T14:52:44.414Z,21.00
2019-03-22T14:55:15.898Z,21.00
2019-03-22T14:57:49.915Z,21.10
2019-03-22T15:00:20.479Z,21.10
2019-03-22T15:02:51.916Z,21.10
2019-03-22T15:05:23.328Z,21.10
2019-03-22T15:07:54.765Z,21.10
2019-03-22T15:10:26.156Z,21.10
2019-03-22T15:12:57.553Z,21.10
2019-03-22T15:15:43.403Z,21.10
2019-03-22T15:18:39.812Z,21.10
2019-03-22T15:21:30.133Z,21.10
2019-03-22T15:24:19.346Z,21.10
2019-03-22T15:27:15.533Z,21.10
2019-03-22T15:30:17.988Z,21.10
2019-03-22T15:33:17.452Z,21.00
2019-03-22T15:36:07.495Z,21.00
2019-03-22T15:38:56.689Z,21.00
2019-03-22T15:41:28.005Z,21.00
2019-03-22T15:43:59.451Z,21.00
2019-03-22T15:46:30.914Z,21.10
2019-03-22T15:49:02.348Z,21.10
2019-03-22T15:51:33.719Z,21.10
2019-03-22T15:54:05.336Z,21.10
2019-03-22T15:56:36.835Z,21.20
2019-03-22T15:59:08.258Z,21.20
2019-03-22T16:01:39.668Z,21.20
2019-03-22T16:04:11.159Z,21.20
2019-03-22T16:06:42.658Z,21.20
2019-03-22T16:09:14.178Z,21.20
2019-03-22T16:11:45.547Z,21.20
2019-03-22T16:14:17.046Z,21.20
2019-03-22T16:16:48.448Z,21.20
2019-03-22T16:19:19.850Z,21.30
2019-03-22T16:21:51.233Z,21.30
2019-03-22T16:24:22.614Z,21.30
2019-03-22T16:26:54.184Z,21.30
2019-03-22T16:29:25.705Z,21.30
2019-03-22T16:31:57.120Z,21.30
2019-03-22T16:34:28.508Z,21.30
2019-03-22T16:37:00.018Z,21.30
2019-03-22T16:39:31.546Z,21.30
2019-03-22T16:42:02.980Z,21.30
2019-03-22T16:44:34.382Z,21.30
2019-03-22T16:47:05.761Z,21.20
2019-03-22T16:49:37.176Z,21.20
2019-03-22T16:52:08.607Z,21.20
2019-03-22T16:54:40.010Z,21.20
2019-03-22T16:57:11.513Z,21.20
2019-03-22T16:59:42.933Z,21.20
2019-03-22T17:02:14.468Z,21.20
2019-03-22T17:04:45.927Z,21.20
2019-03-22T17:07:17.367Z,21.20
2019-03-22T17:09:48.863Z,21.20
2019-03-22T17:12:20.343Z,21.20
2019-03-22T17:14:52.555Z,21.20
2019-03-22T17:17:24.259Z,21.20
2019-03-22T17:19:56.642Z,21.20
2019-03-22T17:22:28.272Z,21.10
2019-03-22T17:25:00.058Z,21.10
2019-03-22T17:27:31.470Z,21.10
2019-03-22T17:30:02.965Z,21.10
2019-03-22T17:32:34.575Z,21.10
2019-03-22T17:35:06.472Z,21.10
2019-03-22T17:37:38.200Z,21.10
2019-03-22T17:40:10.149Z,21.10
2019-03-22T17:42:41.497Z,21.00
2019-03-22T17:45:13.304Z,21.00
2019-03-22T17:47:44.812Z,21.00
2019-03-22T17:50:16.920Z,21.00
2019-03-22T17:52:48.471Z,21.00
2019-03-22T17:55:19.857Z,20.90
2019-03-22T17:57:51.329Z,20.90
2019-03-22T18:00:24.858Z,20.90
2019-03-22T18:02:56.359Z,20.90
2019-03-22T18:05:27.842Z,20.90
2019-03-22T18:07:59.258Z,20.90
2019-03-22T18:10:30.995Z,20.90
2019-03-22T18:13:02.437Z,20.90
2019-03-22T18:15:33.873Z,20.80
2019-03-22T18:18:05.311Z,20.80
2019-03-22T18:20:36.760Z,20.80
2019-03-22T18:23:08.142Z,20.80
2019-03-22T18:25:39.556Z,20.80
2019-03-22T18:28:11.049Z,20.70
2019-03-22T18:30:42.581Z,20.70
2019-03-22T18:33:15.173Z,20.70
2019-03-22T18:35:46.551Z,20.70
2019-03-22T18:38:18.069Z,20.60
2019-03-22T18:40:49.560Z,20.60
2019-03-22T18:43:22.647Z,20.60
2019-03-22T18:45:54.405Z,20.60
2019-03-22T18:48:25.906Z,20.50
2019-03-22T18:50:57.347Z,20.50
2019-03-22T18:53:28.846Z,20.50
2019-03-22T18:56:01.764Z,20.50
2019-03-22T18:58:33.175Z,20.40
2019-03-22T19:01:04.630Z,20.40
2019-03-22T19:03:36.117Z,20.40
2019-03-22T19:06:07.605Z,20.30
2019-03-22T19:08:39.153Z,20.30
2019-03-22T19:11:10.676Z,20.30
2019-03-22T19:13:43.238Z,20.30
2019-03-22T19:16:14.614Z,20.20
2019-03-22T19:18:47.608Z,20.20
2019-03-22T19:21:19.080Z,20.20
2019-03-22T19:23:50.543Z,20.20
2019-03-22T19:26:22.258Z,20.10
2019-03-22T19:28:53.750Z,20.10
2019-03-22T19:31:25.214Z,20.10
2019-03-22T19:33:56.657Z,20.00
2019-03-22T19:36:29.353Z,20.00
2019-03-22T19:39:00.800Z,20.00
2019-03-22T19:41:32.288Z,19.90
2019-03-22T19:44:03.728Z,19.90
2019-03-22T19:46:35.411Z,19.90
2019-03-22T19:49:06.891Z,19.90
2019-03-22T19:51:39.472Z,19.80
2019-03-22T19:54:10.903Z,19.80
2019-03-22T19:56:42.347Z,19.80
2019-03-22T19:59:13.733Z,19.70
2019-03-22T20:01:45.085Z,19.70
2019-03-22T20:04:16.557Z,19.70
2019-03-22T20:06:48.099Z,19.60
2019-03-22T20:09:19.538Z,19.60
2019-03-22T20:11:52.098Z,19.60
2019-03-22T20:14:23.590Z,19.60
2019-03-22T20:16:55.028Z,19.50
2019-03-22T20:19:26.567Z,19.50
2019-03-22T20:21:57.963Z,19.50
2019-03-22T20:24:29.431Z,19.40
2019-03-22T20:27:00.817Z,19.40
2019-03-22T20:29:32.201Z,19.40
2019-03-22T20:32:03.685Z,19.30
2019-03-22T20:34:35.305Z,19.30
2019-03-22T20:37:06.787Z,19.30
2019-03-22T20:39:38.257Z,19.30
2019-03-22T20:42:09.621Z,19.20
2019-03-22T20:44:41.072Z,19.20
2019-03-22T20:47:12.443Z,19.20
2019-03-22T20:49:44.010Z,19.10
2019-03-22T20:52:15.442Z,19.10
2019-03-22T20:54:46.948Z,19.10
2019-03-22T20:57:18.529Z,19.00
2019-03-22T20:59:51.148Z,19.00
2019-03-22T21:02:22.548Z,19.00
2019-03-22T21:04:54.067Z,18.90
2019-03-22T21:07:25.580Z,18.90
2019-03-22T21:09:57.132Z,18.90
2019-03-22T21:12:28.835Z,18.80
2019-03-22T21:15:00.456Z,18.80
2019-03-22T21:17:31.859Z,18.80
2019-03-22T21:20:03.254Z,18.80
2019-03-22T21:22:34.629Z,18.70
2019-03-22T21:25:06.828Z,18.70
2019-03-22T21:27:38.178Z,18.70
2019-03-22T21:30:10.265Z,18.70
2019-03-22T21:32:45.466Z,18.60
2019-03-22T21:35:22.549Z,18.60
2019-03-22T21:37:49.508Z,18.60
2019-03-22T21:40:20.906Z,18.50
2019-03-22T21:42:52.379Z,18.50
2019-03-22T21:45:23.880Z,18.50
2019-03-22T21:47:55.234Z,18.50
2019-03-22T21:50:26.762Z,18.50
2019-03-22T21:52:58.217Z,18.50
2019-03-22T21:55:29.641Z,18.40
2019-03-22T21:58:02.244Z,18.40
2019-03-22T22:00:33.651Z,18.40
2019-03-22T22:03:05.110Z,18.30
2019-03-22T22:05:36.587Z,18.30
2019-03-22T22:08:07.973Z,18.30
2019-03-22T22:10:39.450Z,18.30
2019-03-22T22:13:10.825Z,18.20
2019-03-22T22:15:42.243Z,18.20
2019-03-22T22:18:13.621Z,18.20
2019-03-22T22:20:45.011Z,18.20
2019-03-22T22:23:16.447Z,18.10
2019-03-22T22:25:47.861Z,18.10
2019-03-22T22:28:19.242Z,18.10
2019-03-22T22:30:50.712Z,18.00
2019-03-22T22:33:22.242Z,18.00
2019-03-22T22:35:58.625Z,18.00
2019-03-22T22:38:27.038Z,18.00
2019-03-22T22:40:59.697Z,17.90
2019-03-22T22:43:32.840Z,17.90
2019-03-22T22:46:04.523Z,17.90
2019-03-22T22:48:35.914Z,17.80
2019-03-22T22:51:07.604Z,17.80
2019-03-22T22:53:39.142Z,17.80
2019-03-22T22:56:10.535Z,17.80
2019-03-22T22:58:41.951Z,17.80
2019-03-22T23:01:13.530Z,17.80
2019-03-22T23:03:44.900Z,17.70
2019-03-22T23:06:16.630Z,17.70
2019-03-22T23:08:47.996Z,17.70
2019-03-22T23:11:19.679Z,17.70
2019-03-22T23:13:51.069Z,17.60
2019-03-22T23:16:22.585Z,17.60
2019-03-22T23:18:53.986Z,17.60
2019-03-22T23:21:25.401Z,17.60
2019-03-22T23:23:56.871Z,17.60
2019-03-22T23:26:28.418Z,17.50
2019-03-22T23:28:59.800Z,17.50
2019-03-22T23:31:31.355Z,17.50
2019-03-22T23:34:02.920Z,17.50
2019-03-22T23:36:35.510Z,17.40
2019-03-22T23:39:09.377Z,17.40
2019-03-22T23:41:40.733Z,17.40
2019-03-22T23:44:13.426Z,17.40
2019-03-22T23:46:44.797Z,17.40
2019-03-22T23:49:16.259Z,17.30
2019-03-22T23:51:47.666Z,17.30
2019-03-22T23:54:19.178Z,17.30
2019-03-22T23:56:50.535Z,17.30
2019-03-22T23:59:22.041Z,17.20
